sensor_id;sensor_type;location;lat;lon;timestamp;pressure;altitude;pressure_sealevel;temperature;humidity
44297;BME280;51842;47.450;8.654;2023-02-11T00:01:43;97408.91;;;-4.27;95.75
44297;BME280;51842;47.450;8.654;2023-02-11T00:04:16;97410.84;;;-4.29;95.82
44297;BME280;51842;47.450;8.654;2023-02-11T00:06:42;97408.34;;;-4.31;95.54
44297;BME280;51842;47.450;8.654;2023-02-11T00:09:09;97405.88;;;-4.32;95.96
44297;BME280;51842;47.450;8.654;2023-02-11T00:11:44;97400.78;;;-4.34;96.53
44297;BME280;51842;47.450;8.654;2023-02-11T00:14:16;97399.50;;;-4.39;97.08
44297;BME280;51842;47.450;8.654;2023-02-11T00:16:42;97401.75;;;-4.35;96.70
44297;BME280;51842;47.450;8.654;2023-02-11T00:19:14;97404.22;;;-4.33;96.53
44297;BME280;51842;47.450;8.654;2023-02-11T00:21:42;97399.97;;;-4.34;96.12
44297;BME280;51842;47.450;8.654;2023-02-11T00:24:08;97404.47;;;-4.36;96.60
44297;BME280;51842;47.450;8.654;2023-02-11T00:26:35;97401.03;;;-4.37;96.36
44297;BME280;51842;47.450;8.654;2023-02-11T00:29:12;97405.41;;;-4.37;96.52
44297;BME280;51842;47.450;8.654;2023-02-11T00:31:44;97396.22;;;-4.42;95.90
44297;BME280;51842;47.450;8.654;2023-02-11T00:34:16;97408.06;;;-4.49;96.40
44297;BME280;51842;47.450;8.654;2023-02-11T00:36:42;97405.34;;;-4.47;96.98
44297;BME280;51842;47.450;8.654;2023-02-11T00:39:14;97403.56;;;-4.47;96.62
44297;BME280;51842;47.450;8.654;2023-02-11T00:41:41;97403.69;;;-4.48;96.76
44297;BME280;51842;47.450;8.654;2023-02-11T00:44:15;97401.22;;;-4.50;96.93
44297;BME280;51842;47.450;8.654;2023-02-11T00:46:41;97404.91;;;-4.52;96.70
44297;BME280;51842;47.450;8.654;2023-02-11T00:49:09;97395.56;;;-4.55;96.96
44297;BME280;51842;47.450;8.654;2023-02-11T00:51:35;97392.03;;;-4.54;96.30
44297;BME280;51842;47.450;8.654;2023-02-11T00:54:05;97388.97;;;-4.59;96.33
44297;BME280;51842;47.450;8.654;2023-02-11T00:56:31;97387.44;;;-4.61;96.11
44297;BME280;51842;47.450;8.654;2023-02-11T00:58:57;97384.16;;;-4.63;96.42
44297;BME280;51842;47.450;8.654;2023-02-11T01:01:23;97382.75;;;-4.68;96.58
44297;BME280;51842;47.450;8.654;2023-02-11T01:03:50;97378.75;;;-4.72;96.73
44297;BME280;51842;47.450;8.654;2023-02-11T01:06:16;97384.19;;;-4.75;96.77
44297;BME280;51842;47.450;8.654;2023-02-11T01:08:42;97379.25;;;-4.78;96.78
44297;BME280;51842;47.450;8.654;2023-02-11T01:11:19;97371.00;;;-4.83;96.63
44297;BME280;51842;47.450;8.654;2023-02-11T01:13:48;97381.88;;;-4.89;97.29
44297;BME280;51842;47.450;8.654;2023-02-11T01:16:15;97383.81;;;-4.91;97.89
44297;BME280;51842;47.450;8.654;2023-02-11T01:18:42;97377.41;;;-4.87;97.31
44297;BME280;51842;47.450;8.654;2023-02-11T01:21:11;97368.06;;;-4.90;96.86
44297;BME280;51842;47.450;8.654;2023-02-11T01:23:37;97369.38;;;-4.95;96.97
44297;BME280;51842;47.450;8.654;2023-02-11T01:26:06;97362.09;;;-5.01;97.36
44297;BME280;51842;47.450;8.654;2023-02-11T01:28:41;97354.91;;;-5.09;97.63
44297;BME280;51842;47.450;8.654;2023-02-11T01:31:07;97353.72;;;-5.05;97.41
44297;BME280;51842;47.450;8.654;2023-02-11T01:33:36;97347.84;;;-5.07;97.28
44297;BME280;51842;47.450;8.654;2023-02-11T01:36:08;97353.28;;;-5.10;98.44
44297;BME280;51842;47.450;8.654;2023-02-11T01:38:34;97346.28;;;-5.09;98.28
44297;BME280;51842;47.450;8.654;2023-02-11T01:41:06;97347.84;;;-5.07;98.16
44297;BME280;51842;47.450;8.654;2023-02-11T01:43:49;97339.31;;;-5.09;98.30
44297;BME280;51842;47.450;8.654;2023-02-11T01:46:33;97338.75;;;-5.13;98.42
44297;BME280;51842;47.450;8.654;2023-02-11T01:49:18;97340.63;;;-5.15;99.29
44297;BME280;51842;47.450;8.654;2023-02-11T01:54:34;97326.47;;;-5.10;98.25
44297;BME280;51842;47.450;8.654;2023-02-11T01:57:25;97327.88;;;-5.18;98.55
44297;BME280;51842;47.450;8.654;2023-02-11T02:00:24;97327.78;;;-5.16;98.85
44297;BME280;51842;47.450;8.654;2023-02-11T02:03:17;97333.22;;;-5.19;99.10
44297;BME280;51842;47.450;8.654;2023-02-11T02:06:34;97322.84;;;-5.19;99.76
44297;BME280;51842;47.450;8.654;2023-02-11T02:09:27;97323.97;;;-5.12;99.59
44297;BME280;51842;47.450;8.654;2023-02-11T02:12:00;97321.13;;;-5.09;99.33
44297;BME280;51842;47.450;8.654;2023-02-11T02:14:26;97307.31;;;-5.09;98.78
44297;BME280;51842;47.450;8.654;2023-02-11T02:16:53;97308.63;;;-5.15;99.12
44297;BME280;51842;47.450;8.654;2023-02-11T02:35:28;97310.94;;;-5.33;99.46
44297;BME280;51842;47.450;8.654;2023-02-11T02:38:14;97313.53;;;-5.33;100.00
44297;BME280;51842;47.450;8.654;2023-02-11T02:41:09;97307.72;;;-5.25;100.00
44297;BME280;51842;47.450;8.654;2023-02-11T02:43:45;97304.88;;;-5.22;100.00
44297;BME280;51842;47.450;8.654;2023-02-11T02:46:27;97300.38;;;-5.20;100.00
44297;BME280;51842;47.450;8.654;2023-02-11T02:48:56;97298.16;;;-5.25;99.87
44297;BME280;51842;47.450;8.654;2023-02-11T03:10:44;97298.31;;;-5.26;99.50
44297;BME280;51842;47.450;8.654;2023-02-11T03:13:19;97299.38;;;-5.29;99.38
44297;BME280;51842;47.450;8.654;2023-02-11T03:15:54;97291.69;;;-5.30;99.10
44297;BME280;51842;47.450;8.654;2023-02-11T03:18:30;97304.91;;;-5.33;99.70
44297;BME280;51842;47.450;8.654;2023-02-11T03:21:05;97308.47;;;-5.35;99.28
44297;BME280;51842;47.450;8.654;2023-02-11T03:23:54;97296.31;;;-5.34;99.33
44297;BME280;51842;47.450;8.654;2023-02-11T03:26:48;97295.72;;;-5.38;99.50
44297;BME280;51842;47.450;8.654;2023-02-11T03:29:30;97287.59;;;-5.44;99.60
44297;BME280;51842;47.450;8.654;2023-02-11T03:32:47;97285.69;;;-5.42;99.84
44297;BME280;51842;47.450;8.654;2023-02-11T03:35:46;97290.06;;;-5.43;99.54
44297;BME280;51842;47.450;8.654;2023-02-11T03:38:29;97279.09;;;-5.46;100.00
44297;BME280;51842;47.450;8.654;2023-02-11T03:41:00;97273.91;;;-5.46;100.00
44297;BME280;51842;47.450;8.654;2023-02-11T03:43:45;97269.66;;;-5.47;99.75
44297;BME280;51842;47.450;8.654;2023-02-11T03:46:21;97265.69;;;-5.51;99.26
44297;BME280;51842;47.450;8.654;2023-02-11T03:49:01;97260.03;;;-5.56;98.99
44297;BME280;51842;47.450;8.654;2023-02-11T03:51:35;97265.81;;;-5.64;99.65
44297;BME280;51842;47.450;8.654;2023-02-11T03:54:13;97279.25;;;-5.59;100.00
44297;BME280;51842;47.450;8.654;2023-02-11T03:57:00;97274.78;;;-5.57;100.00
44297;BME280;51842;47.450;8.654;2023-02-11T03:59:27;97269.13;;;-5.62;99.60
44297;BME280;51842;47.450;8.654;2023-02-11T04:01:59;97273.16;;;-5.69;99.89
44297;BME280;51842;47.450;8.654;2023-02-11T04:04:25;97269.75;;;-5.70;100.00
44297;BME280;51842;47.450;8.654;2023-02-11T04:07:00;97260.88;;;-5.67;99.88
44297;BME280;51842;47.450;8.654;2023-02-11T04:09:26;97257.94;;;-5.74;99.84
44297;BME280;51842;47.450;8.654;2023-02-11T04:11:51;97261.50;;;-5.75;100.00
44297;BME280;51842;47.450;8.654;2023-02-11T04:14:17;97258.06;;;-5.75;99.54
44297;BME280;51842;47.450;8.654;2023-02-11T04:16:46;97255.59;;;-5.77;99.51
44297;BME280;51842;47.450;8.654;2023-02-11T04:19:20;97256.69;;;-5.79;99.31
44297;BME280;51842;47.450;8.654;2023-02-11T04:21:52;97269.03;;;-5.83;100.00
44297;BME280;51842;47.450;8.654;2023-02-11T04:24:21;97267.16;;;-5.81;100.00
44297;BME280;51842;47.450;8.654;2023-02-11T04:26:47;97257.34;;;-5.77;100.00
44297;BME280;51842;47.450;8.654;2023-02-11T04:29:13;97253.94;;;-5.78;100.00
44297;BME280;51842;47.450;8.654;2023-02-11T04:31:42;97256.78;;;-5.81;100.00
44297;BME280;51842;47.450;8.654;2023-02-11T04:34:18;97261.50;;;-5.75;100.00
44297;BME280;51842;47.450;8.654;2023-02-11T04:36:44;97257.69;;;-5.71;100.00
44297;BME280;51842;47.450;8.654;2023-02-11T04:39:10;97258.66;;;-5.72;100.00
44297;BME280;51842;47.450;8.654;2023-02-11T04:41:35;97256.44;;;-5.76;100.00
44297;BME280;51842;47.450;8.654;2023-02-11T04:44:04;97259.03;;;-5.76;100.00
44297;BME280;51842;47.450;8.654;2023-02-11T04:46:42;97264.91;;;-5.74;100.00
44297;BME280;51842;47.450;8.654;2023-02-11T04:49:16;97263.97;;;-5.73;100.00
44297;BME280;51842;47.450;8.654;2023-02-11T04:51:45;97267.25;;;-5.71;100.00
44297;BME280;51842;47.450;8.654;2023-02-11T04:54:14;97263.84;;;-5.72;100.00
44297;BME280;51842;47.450;8.654;2023-02-11T04:56:48;97268.31;;;-5.74;100.00
44297;BME280;51842;47.450;8.654;2023-02-11T04:59:17;97275.03;;;-5.71;100.00
44297;BME280;51842;47.450;8.654;2023-02-11T05:01:43;97281.06;;;-5.71;100.00
44297;BME280;51842;47.450;8.654;2023-02-11T05:04:09;97278.94;;;-5.77;100.00
44297;BME280;51842;47.450;8.654;2023-02-11T05:06:44;97281.44;;;-5.75;100.00
44297;BME280;51842;47.450;8.654;2023-02-11T05:09:13;97284.75;;;-5.73;100.00
44297;BME280;51842;47.450;8.654;2023-02-11T05:11:45;97279.66;;;-5.75;100.00
44297;BME280;51842;47.450;8.654;2023-02-11T05:14:11;97269.41;;;-5.76;100.00
44297;BME280;51842;47.450;8.654;2023-02-11T05:16:46;97276.59;;;-5.80;99.93
44297;BME280;51842;47.450;8.654;2023-02-11T05:19:12;97275.19;;;-5.84;99.94
44297;BME280;51842;47.450;8.654;2023-02-11T05:22:07;97275.44;;;-5.87;100.00
44297;BME280;51842;47.450;8.654;2023-02-11T05:24:34;97269.66;;;-5.91;100.00
44297;BME280;51842;47.450;8.654;2023-02-11T05:27:00;97278.91;;;-5.98;99.87
44297;BME280;51842;47.450;8.654;2023-02-11T05:29:29;97287.63;;;-5.99;100.00
44297;BME280;51842;47.450;8.654;2023-02-11T05:31:55;97288.34;;;-5.97;100.00
44297;BME280;51842;47.450;8.654;2023-02-11T05:34:25;97293.53;;;-5.97;100.00
44297;BME280;51842;47.450;8.654;2023-02-11T05:36:50;97295.16;;;-5.96;100.00
44297;BME280;51842;47.450;8.654;2023-02-11T05:39:19;97300.38;;;-5.96;100.00
44297;BME280;51842;47.450;8.654;2023-02-11T05:41:47;97296.13;;;-5.97;100.00
44297;BME280;51842;47.450;8.654;2023-02-11T05:44:22;97305.44;;;-5.94;100.00
44297;BME280;51842;47.450;8.654;2023-02-11T05:46:48;97308.03;;;-5.94;100.00
44297;BME280;51842;47.450;8.654;2023-02-11T05:49:20;97307.91;;;-5.93;100.00
44297;BME280;51842;47.450;8.654;2023-02-11T05:51:46;97315.44;;;-5.90;100.00
44297;BME280;51842;47.450;8.654;2023-02-11T05:54:14;97308.59;;;-5.91;100.00
44297;BME280;51842;47.450;8.654;2023-02-11T05:56:41;97312.72;;;-5.88;100.00
44297;BME280;51842;47.450;8.654;2023-02-11T05:59:07;97319.56;;;-5.87;100.00
44297;BME280;51842;47.450;8.654;2023-02-11T06:01:36;97312.59;;;-5.87;100.00
44297;BME280;51842;47.450;8.654;2023-02-11T06:04:02;97312.50;;;-5.85;100.00
44297;BME280;51842;47.450;8.654;2023-02-11T06:06:28;97319.47;;;-5.86;100.00
44297;BME280;51842;47.450;8.654;2023-02-11T06:08:57;97317.78;;;-5.87;100.00
44297;BME280;51842;47.450;8.654;2023-02-11T06:11:25;97316.25;;;-5.89;100.00
44297;BME280;51842;47.450;8.654;2023-02-11T06:13:54;97326.28;;;-5.85;100.00
44297;BME280;51842;47.450;8.654;2023-02-11T06:16:25;97324.66;;;-5.86;100.00
44297;BME280;51842;47.450;8.654;2023-02-11T06:18:51;97319.69;;;-5.89;100.00
44297;BME280;51842;47.450;8.654;2023-02-11T06:21:17;97318.16;;;-5.91;100.00
44297;BME280;51842;47.450;8.654;2023-02-11T06:23:49;97316.13;;;-5.88;100.00
44297;BME280;51842;47.450;8.654;2023-02-11T06:26:20;97321.56;;;-5.79;100.00
44297;BME280;51842;47.450;8.654;2023-02-11T06:28:51;97321.34;;;-5.76;100.00
44297;BME280;51842;47.450;8.654;2023-02-11T06:31:23;97326.38;;;-5.75;100.00
44297;BME280;51842;47.450;8.654;2023-02-11T06:33:49;97327.94;;;-5.72;100.00
44297;BME280;51842;47.450;8.654;2023-02-11T06:36:21;97331.72;;;-5.76;100.00
44297;BME280;51842;47.450;8.654;2023-02-11T06:38:49;97338.66;;;-5.77;100.00
44297;BME280;51842;47.450;8.654;2023-02-11T06:41:19;97340.78;;;-5.71;100.00
44297;BME280;51842;47.450;8.654;2023-02-11T06:43:48;97333.81;;;-5.70;100.00
44297;BME280;51842;47.450;8.654;2023-02-11T06:46:15;97337.34;;;-5.60;100.00
44297;BME280;51842;47.450;8.654;2023-02-11T06:48:41;97327.16;;;-5.52;100.00
44297;BME280;51842;47.450;8.654;2023-02-11T06:51:10;97323.88;;;-5.54;100.00
44297;BME280;51842;47.450;8.654;2023-02-11T06:53:43;97316.09;;;-5.54;100.00
44297;BME280;51842;47.450;8.654;2023-02-11T06:56:16;97323.06;;;-5.54;100.00
44297;BME280;51842;47.450;8.654;2023-02-11T06:58:45;97310.44;;;-5.59;100.00
44297;BME280;51842;47.450;8.654;2023-02-11T07:01:14;97313.03;;;-5.59;100.00
44297;BME280;51842;47.450;8.654;2023-02-11T07:03:44;97318.09;;;-5.57;100.00
44297;BME280;51842;47.450;8.654;2023-02-11T07:06:17;97317.41;;;-5.60;99.97
44297;BME280;51842;47.450;8.654;2023-02-11T07:08:48;97311.50;;;-5.62;99.80
44297;BME280;51842;47.450;8.654;2023-02-11T07:11:26;97303.84;;;-5.63;100.00
44297;BME280;51842;47.450;8.654;2023-02-11T07:14:07;97302.06;;;-5.63;99.82
44297;BME280;51842;47.450;8.654;2023-02-11T07:16:34;97299.69;;;-5.66;99.66
44297;BME280;51842;47.450;8.654;2023-02-11T07:19:00;97294.03;;;-5.71;99.60
44297;BME280;51842;47.450;8.654;2023-02-11T07:21:26;97293.94;;;-5.69;99.88
44297;BME280;51842;47.450;8.654;2023-02-11T07:23:53;97289.56;;;-5.69;100.00
44297;BME280;51842;47.450;8.654;2023-02-11T07:26:23;97298.06;;;-5.67;100.00
44297;BME280;51842;47.450;8.654;2023-02-11T07:28:52;97295.91;;;-5.62;100.00
44297;BME280;51842;47.450;8.654;2023-02-11T07:31:28;97287.19;;;-5.61;100.00
44297;BME280;51842;47.450;8.654;2023-02-11T07:34:00;97281.75;;;-5.57;100.00
44297;BME280;51842;47.450;8.654;2023-02-11T07:36:29;97286.81;;;-5.56;100.00
44297;BME280;51842;47.450;8.654;2023-02-11T07:38:57;97296.97;;;-5.53;100.00
44297;BME280;51842;47.450;8.654;2023-02-11T07:41:29;97301.91;;;-5.50;100.00
44297;BME280;51842;47.450;8.654;2023-02-11T07:43:55;97300.44;;;-5.31;100.00
44297;BME280;51842;47.450;8.654;2023-02-11T07:46:25;97297.25;;;-5.03;100.00
44297;BME280;51842;47.450;8.654;2023-02-11T07:48:52;97292.38;;;-4.75;100.00
44297;BME280;51842;47.450;8.654;2023-02-11T07:51:25;97289.97;;;-4.36;100.00
44297;BME280;51842;47.450;8.654;2023-02-11T07:53:59;97282.44;;;-4.09;100.00
44297;BME280;51842;47.450;8.654;2023-02-11T07:56:27;97284.41;;;-3.91;99.38
44297;BME280;51842;47.450;8.654;2023-02-11T07:58:58;97276.78;;;-3.74;98.39
44297;BME280;51842;47.450;8.654;2023-02-11T08:01:29;97283.81;;;-3.55;97.94
44297;BME280;51842;47.450;8.654;2023-02-11T08:03:58;97283.53;;;-3.32;98.01
44297;BME280;51842;47.450;8.654;2023-02-11T08:06:33;97283.69;;;-3.24;95.99
44297;BME280;51842;47.450;8.654;2023-02-11T08:09:13;97286.03;;;-3.11;95.99
44297;BME280;51842;47.450;8.654;2023-02-11T08:11:39;97284.53;;;-2.94;95.33
44297;BME280;51842;47.450;8.654;2023-02-11T08:14:11;97281.34;;;-2.78;95.52
44297;BME280;51842;47.450;8.654;2023-02-11T08:16:37;97280.88;;;-2.54;95.17
44297;BME280;51842;47.450;8.654;2023-02-11T08:19:15;97277.25;;;-2.24;94.81
44297;BME280;51842;47.450;8.654;2023-02-11T08:21:42;97275.25;;;-1.85;94.95
44297;BME280;51842;47.450;8.654;2023-02-11T08:24:10;97270.03;;;-1.57;89.59
44297;BME280;51842;47.450;8.654;2023-02-11T08:26:40;97266.84;;;-1.33;88.33
44297;BME280;51842;47.450;8.654;2023-02-11T08:29:14;97270.66;;;-1.10;86.56
44297;BME280;51842;47.450;8.654;2023-02-11T08:31:46;97271.84;;;-0.86;85.47
44297;BME280;51842;47.450;8.654;2023-02-11T08:34:13;97273.22;;;-0.56;83.51
44297;BME280;51842;47.450;8.654;2023-02-11T08:36:42;97291.38;;;-0.29;79.39
44297;BME280;51842;47.450;8.654;2023-02-11T08:39:20;97294.50;;;0.01;76.77
44297;BME280;51842;47.450;8.654;2023-02-11T08:41:52;97292.63;;;0.19;76.70
44297;BME280;51842;47.450;8.654;2023-02-11T08:44:24;97290.06;;;0.36;76.65
44297;BME280;51842;47.450;8.654;2023-02-11T08:46:53;97296.28;;;0.43;73.71
44297;BME280;51842;47.450;8.654;2023-02-11T08:49:20;97305.50;;;0.55;74.85
44297;BME280;51842;47.450;8.654;2023-02-11T08:51:48;97306.03;;;0.67;74.31
44297;BME280;51842;47.450;8.654;2023-02-11T08:54:17;97320.72;;;0.43;71.05
44297;BME280;51842;47.450;8.654;2023-02-11T08:56:51;97324.03;;;0.11;71.83
44297;BME280;51842;47.450;8.654;2023-02-11T08:59:17;97325.38;;;0.23;71.62
44297;BME280;51842;47.450;8.654;2023-02-11T09:01:43;97323.50;;;0.42;71.90
44297;BME280;51842;47.450;8.654;2023-02-11T09:04:09;97322.38;;;0.53;71.90
44297;BME280;51842;47.450;8.654;2023-02-11T09:06:35;97331.09;;;0.61;74.14
44297;BME280;51842;47.450;8.654;2023-02-11T09:09:01;97332.31;;;0.33;68.45
44297;BME280;51842;47.450;8.654;2023-02-11T09:11:33;97331.72;;;0.47;69.52
44297;BME280;51842;47.450;8.654;2023-02-11T09:14:01;97326.31;;;0.49;68.71
44297;BME280;51842;47.450;8.654;2023-02-11T09:16:33;97321.59;;;0.60;68.84
44297;BME280;51842;47.450;8.654;2023-02-11T09:19:02;97314.22;;;0.64;72.47
44297;BME280;51842;47.450;8.654;2023-02-11T09:21:29;97306.75;;;0.93;73.50
44297;BME280;51842;47.450;8.654;2023-02-11T09:23:56;97298.06;;;1.01;74.44
44297;BME280;51842;47.450;8.654;2023-02-11T09:26:34;97299.06;;;1.08;74.49
44297;BME280;51842;47.450;8.654;2023-02-11T09:29:04;97299.72;;;1.27;75.03
44297;BME280;51842;47.450;8.654;2023-02-11T09:31:32;97301.38;;;1.60;73.71
44297;BME280;51842;47.450;8.654;2023-02-11T09:34:05;97291.59;;;2.02;73.36
44297;BME280;51842;47.450;8.654;2023-02-11T09:36:36;97292.09;;;2.45;72.50
44297;BME280;51842;47.450;8.654;2023-02-11T09:39:08;97295.41;;;2.70;69.68
44297;BME280;51842;47.450;8.654;2023-02-11T09:42:14;97299.91;;;2.84;67.18
44297;BME280;51842;47.450;8.654;2023-02-11T09:44:46;97297.41;;;2.91;64.80
44297;BME280;51842;47.450;8.654;2023-02-11T09:47:30;97299.53;;;2.95;65.03
44297;BME280;51842;47.450;8.654;2023-02-11T09:52:59;97306.56;;;3.03;64.23
44297;BME280;51842;47.450;8.654;2023-02-11T09:58:00;97309.94;;;2.89;63.92
44297;BME280;51842;47.450;8.654;2023-02-11T10:00:46;97299.75;;;2.86;62.35
44297;BME280;51842;47.450;8.654;2023-02-11T10:06:29;97293.28;;;2.96;61.01
44297;BME280;51842;47.450;8.654;2023-02-11T10:23:50;97295.00;;;2.81;64.46
44297;BME280;51842;47.450;8.654;2023-02-11T10:26:20;97288.69;;;2.90;64.73
44297;BME280;51842;47.450;8.654;2023-02-11T10:28:52;97285.03;;;2.99;63.81
44297;BME280;51842;47.450;8.654;2023-02-11T10:31:41;97284.44;;;3.12;63.29
44297;BME280;51842;47.450;8.654;2023-02-11T10:34:14;97291.16;;;3.38;62.19
44297;BME280;51842;47.450;8.654;2023-02-11T10:36:47;97296.56;;;3.59;62.44
44297;BME280;51842;47.450;8.654;2023-02-11T10:39:25;97306.78;;;3.77;59.88
44297;BME280;51842;47.450;8.654;2023-02-11T10:42:10;97311.53;;;3.97;60.06
44297;BME280;51842;47.450;8.654;2023-02-11T10:45:03;97298.09;;;4.06;57.92
44297;BME280;51842;47.450;8.654;2023-02-11T10:47:37;97300.44;;;4.16;57.83
44297;BME280;51842;47.450;8.654;2023-02-11T10:50:25;97303.44;;;4.28;57.17
44297;BME280;51842;47.450;8.654;2023-02-11T10:52:52;97311.38;;;4.28;58.46
44297;BME280;51842;47.450;8.654;2023-02-11T10:55:25;97293.34;;;4.31;59.06
44297;BME280;51842;47.450;8.654;2023-02-11T10:58:00;97294.63;;;4.35;58.47
44297;BME280;51842;47.450;8.654;2023-02-11T11:00:36;97281.78;;;4.32;57.64
44297;BME280;51842;47.450;8.654;2023-02-11T11:03:30;97283.69;;;4.53;54.94
44297;BME280;51842;47.450;8.654;2023-02-11T11:06:04;97280.53;;;4.79;53.87
44297;BME280;51842;47.450;8.654;2023-02-11T11:08:51;97276.47;;;5.20;51.34
44297;BME280;51842;47.450;8.654;2023-02-11T11:11:24;97281.34;;;5.66;51.99
44297;BME280;51842;47.450;8.654;2023-02-11T11:13:57;97276.31;;;5.99;49.78
44297;BME280;51842;47.450;8.654;2023-02-11T11:16:34;97272.59;;;6.28;49.46
44297;BME280;51842;47.450;8.654;2023-02-11T11:21:48;97266.44;;;6.62;44.92
44297;BME280;51842;47.450;8.654;2023-02-11T11:24:39;97262.19;;;6.61;44.85
44297;BME280;51842;47.450;8.654;2023-02-11T11:27:22;97263.22;;;6.73;44.82
44297;BME280;51842;47.450;8.654;2023-02-11T11:29:55;97255.13;;;6.95;45.16
44297;BME280;51842;47.450;8.654;2023-02-11T11:32:29;97254.94;;;7.03;44.49
44297;BME280;51842;47.450;8.654;2023-02-11T11:35:28;97249.06;;;7.28;44.54
44297;BME280;51842;47.450;8.654;2023-02-11T11:38:02;97243.59;;;7.49;44.38
44297;BME280;51842;47.450;8.654;2023-02-11T11:40:34;97242.75;;;7.55;43.81
44297;BME280;51842;47.450;8.654;2023-02-11T11:43:19;97248.66;;;7.77;44.45
44297;BME280;51842;47.450;8.654;2023-02-11T11:45:58;97254.13;;;8.09;42.63
44297;BME280;51842;47.450;8.654;2023-02-11T11:48:37;97248.97;;;8.21;44.95
44297;BME280;51842;47.450;8.654;2023-02-11T11:51:10;97253.16;;;8.55;45.13
44297;BME280;51842;47.450;8.654;2023-02-11T11:54:03;97248.94;;;8.86;44.38
44297;BME280;51842;47.450;8.654;2023-02-11T11:59:33;97244.63;;;9.23;40.84
44297;BME280;51842;47.450;8.654;2023-02-11T12:43:38;97219.69;;;10.96;37.38
44297;BME280;51842;47.450;8.654;2023-02-11T12:52:32;97203.22;;;11.41;35.25
44297;BME280;51842;47.450;8.654;2023-02-11T12:55:37;97201.72;;;11.45;35.26
44297;BME280;51842;47.450;8.654;2023-02-11T12:58:22;97208.44;;;11.71;34.54
44297;BME280;51842;47.450;8.654;2023-02-11T13:01:21;97208.47;;;11.83;34.62
44297;BME280;51842;47.450;8.654;2023-02-11T13:04:23;97203.03;;;12.01;33.65
44297;BME280;51842;47.450;8.654;2023-02-11T13:07:08;97202.78;;;11.79;33.82
44297;BME280;51842;47.450;8.654;2023-02-11T13:09:50;97192.41;;;12.18;33.96
44297;BME280;51842;47.450;8.654;2023-02-11T13:12:18;97188.84;;;12.13;32.92
44297;BME280;51842;47.450;8.654;2023-02-11T13:15:13;97185.16;;;11.90;34.51
44297;BME280;51842;47.450;8.654;2023-02-11T13:24:50;97182.97;;;12.39;33.75
44297;BME280;51842;47.450;8.654;2023-02-11T13:30:37;97183.53;;;12.82;32.54
44297;BME280;51842;47.450;8.654;2023-02-11T13:33:20;97182.84;;;12.74;32.70
44297;BME280;51842;47.450;8.654;2023-02-11T13:38:31;97177.19;;;12.88;32.27
44297;BME280;51842;47.450;8.654;2023-02-11T13:46:57;97183.94;;;12.21;34.78
44297;BME280;51842;47.450;8.654;2023-02-11T13:49:37;97183.31;;;12.43;32.75
44297;BME280;51842;47.450;8.654;2023-02-11T13:52:38;97171.38;;;12.62;33.13
44297;BME280;51842;47.450;8.654;2023-02-11T13:57:41;97168.19;;;12.77;33.04
44297;BME280;51842;47.450;8.654;2023-02-11T14:06:26;97163.66;;;12.78;32.11
44297;BME280;51842;47.450;8.654;2023-02-11T14:14:33;97158.78;;;12.74;32.47
44297;BME280;51842;47.450;8.654;2023-02-11T14:19:43;97158.09;;;13.13;31.29
44297;BME280;51842;47.450;8.654;2023-02-11T14:22:47;97155.78;;;12.71;31.47
44297;BME280;51842;47.450;8.654;2023-02-11T14:25:24;97159.47;;;12.82;31.51
44297;BME280;51842;47.450;8.654;2023-02-11T14:28:10;97160.28;;;12.82;31.58
44297;BME280;51842;47.450;8.654;2023-02-11T14:31:39;97163.59;;;12.89;30.52
44297;BME280;51842;47.450;8.654;2023-02-11T14:44:29;97142.69;;;11.53;32.83
44297;BME280;51842;47.450;8.654;2023-02-11T14:46:56;97144.75;;;11.51;33.43
44297;BME280;51842;47.450;8.654;2023-02-11T14:49:37;97148.44;;;11.62;33.45
44297;BME280;51842;47.450;8.654;2023-02-11T14:52:37;97148.09;;;11.47;34.86
44297;BME280;51842;47.450;8.654;2023-02-11T14:55:36;97144.88;;;11.45;34.59
44297;BME280;51842;47.450;8.654;2023-02-11T15:01:39;97141.06;;;11.41;34.21
44297;BME280;51842;47.450;8.654;2023-02-11T15:04:33;97143.72;;;11.41;33.82
44297;BME280;51842;47.450;8.654;2023-02-11T15:07:10;97141.84;;;11.53;33.96
44297;BME280;51842;47.450;8.654;2023-02-11T15:09:51;97142.31;;;11.62;33.14
44297;BME280;51842;47.450;8.654;2023-02-11T15:12:25;97146.13;;;11.77;33.71
44297;BME280;51842;47.450;8.654;2023-02-11T15:14:58;97145.66;;;11.80;32.89
44297;BME280;51842;47.450;8.654;2023-02-11T15:17:30;97148.78;;;11.66;32.78
44297;BME280;51842;47.450;8.654;2023-02-11T15:20:01;97147.63;;;11.50;32.49
44297;BME280;51842;47.450;8.654;2023-02-11T15:22:33;97143.47;;;11.42;32.78
44297;BME280;51842;47.450;8.654;2023-02-11T15:25:16;97135.56;;;11.24;33.29
44297;BME280;51842;47.450;8.654;2023-02-11T15:27:51;97139.13;;;10.94;34.12
44297;BME280;51842;47.450;8.654;2023-02-11T15:33:18;97130.84;;;10.42;36.37
44297;BME280;51842;47.450;8.654;2023-02-11T15:35:39;97134.25;;;10.31;36.33
44297;BME280;51842;47.450;8.654;2023-02-11T15:38:08;97132.34;;;10.19;37.30
44297;BME280;51842;47.450;8.654;2023-02-11T15:40:36;97137.53;;;9.96;37.70
44297;BME280;51842;47.450;8.654;2023-02-11T15:43:07;97137.59;;;9.71;38.14
44297;BME280;51842;47.450;8.654;2023-02-11T15:46:00;97139.25;;;9.72;38.14
44297;BME280;51842;47.450;8.654;2023-02-11T15:48:54;97128.66;;;9.65;38.81
44297;BME280;51842;47.450;8.654;2023-02-11T15:51:34;97134.03;;;9.59;39.68
44297;BME280;51842;47.450;8.654;2023-02-11T15:54:22;97133.16;;;9.46;39.40
44297;BME280;51842;47.450;8.654;2023-02-11T15:56:58;97146.41;;;9.28;39.70
44297;BME280;51842;47.450;8.654;2023-02-11T16:02:29;97155.09;;;9.17;40.72
44297;BME280;51842;47.450;8.654;2023-02-11T16:05:35;97153.59;;;9.02;39.53
44297;BME280;51842;47.450;8.654;2023-02-11T16:08:23;97146.50;;;8.90;39.54
44297;BME280;51842;47.450;8.654;2023-02-11T16:10:59;97150.28;;;8.75;41.46
44297;BME280;51842;47.450;8.654;2023-02-11T16:13:41;97158.19;;;8.50;41.15
44297;BME280;51842;47.450;8.654;2023-02-11T16:16:29;97162.59;;;8.25;41.47
44297;BME280;51842;47.450;8.654;2023-02-11T16:19:02;97163.09;;;7.95;44.12
44297;BME280;51842;47.450;8.654;2023-02-11T16:21:36;97157.88;;;7.69;44.41
44297;BME280;51842;47.450;8.654;2023-02-11T16:24:28;97150.78;;;7.36;47.17
44297;BME280;51842;47.450;8.654;2023-02-11T16:27:25;97156.09;;;7.09;48.01
44297;BME280;51842;47.450;8.654;2023-02-11T16:29:56;97152.81;;;6.87;48.34